createdAt,value
2019-02-08T00:02:22.871Z,4.78
2019-02-08T00:07:28.431Z,8.67
2019-02-08T00:12:33.731Z,7.00
2019-02-08T00:17:38.881Z,6.23
2019-02-08T00:22:44.134Z,4.05
2019-02-08T00:27:49.422Z,5.27
2019-02-08T00:32:55.578Z,5.50
2019-02-08T00:38:00.693Z,9.40
2019-02-08T00:43:06.290Z,9.73
2019-02-08T00:48:11.490Z,4.70
2019-02-08T00:53:16.927Z,8.30
2019-02-08T00:58:22.118Z,9.57
2019-02-08T01:03:27.430Z,7.17
2019-02-08T01:08:32.597Z,5.37
2019-02-08T01:13:38.037Z,6.77
2019-02-08T01:18:43.284Z,9.68
2019-02-08T01:23:48.596Z,13.03
2019-02-08T01:28:53.912Z,5.55
2019-02-08T01:33:59.254Z,6.97
2019-02-08T01:39:07.083Z,10.53
2019-02-08T01:44:12.608Z,2.67
2019-02-08T01:49:17.841Z,4.50
2019-02-08T01:54:23.146Z,7.30
2019-02-08T01:59:28.363Z,4.63
2019-02-08T02:04:33.692Z,6.80
2019-02-08T02:09:38.882Z,6.37
2019-02-08T02:14:44.231Z,5.93
2019-02-08T02:19:49.426Z,7.25
2019-02-08T02:24:54.670Z,8.07
2019-02-08T02:29:59.975Z,9.03
2019-02-08T02:35:05.741Z,5.13
2019-02-08T02:40:12.423Z,7.37
2019-02-08T02:45:21.146Z,6.23
2019-02-08T02:50:26.733Z,5.33
2019-02-08T02:55:32.262Z,7.83
2019-02-08T03:00:41.434Z,10.10
2019-02-08T03:05:46.841Z,13.37
2019-02-08T03:10:52.280Z,11.05
2019-02-08T03:15:57.652Z,17.13
2019-02-08T03:21:02.848Z,15.67
2019-02-08T03:26:08.170Z,7.73
2019-02-08T03:31:13.479Z,10.97
2019-02-08T03:36:18.744Z,10.60
2019-02-08T03:41:24.033Z,8.93
2019-02-08T03:46:29.266Z,9.17
2019-02-08T03:51:34.451Z,13.33
2019-02-08T03:56:39.716Z,9.50
2019-02-08T04:01:45.037Z,12.03
2019-02-08T04:06:50.192Z,18.67
2019-02-08T04:11:55.663Z,19.07
2019-02-08T04:17:00.876Z,17.40
2019-02-08T04:22:06.256Z,17.47
2019-02-08T04:27:11.496Z,17.13
2019-02-08T04:32:16.866Z,11.57
2019-02-08T04:37:22.128Z,19.53
2019-02-08T04:42:27.362Z,18.60
2019-02-08T04:47:32.548Z,14.00
2019-02-08T04:52:37.811Z,16.87
2019-02-08T04:57:42.951Z,5.83
2019-02-08T05:02:48.331Z,19.70
2019-02-08T05:07:53.592Z,20.10
2019-02-08T05:12:59.278Z,15.33
2019-02-08T05:18:04.841Z,13.50
2019-02-08T05:23:10.096Z,21.00
2019-02-08T05:28:15.378Z,11.70
2019-02-08T05:33:20.632Z,22.03
2019-02-08T05:38:25.817Z,15.43
2019-02-08T05:43:31.138Z,14.60
2019-02-08T05:48:36.450Z,13.33
2019-02-08T05:53:41.938Z,14.90
2019-02-08T05:58:47.085Z,17.98
2019-02-08T06:03:52.277Z,18.40
2019-02-08T06:08:57.651Z,22.57
2019-02-08T06:14:02.956Z,19.67
2019-02-08T06:19:08.281Z,19.00
2019-02-08T06:24:13.619Z,17.30
2019-02-08T06:29:18.917Z,14.23
2019-02-08T06:34:24.340Z,15.10
2019-02-08T06:39:29.556Z,14.03
2019-02-08T06:44:34.806Z,22.58
2019-02-08T06:49:39.961Z,19.17
2019-02-08T06:54:45.365Z,19.27
2019-02-08T06:59:59.016Z,15.97
2019-02-08T07:05:12.934Z,10.03
2019-02-08T07:10:33.582Z,19.07
2019-02-08T07:15:47.036Z,18.67
2019-02-08T07:21:00.996Z,22.35
2019-02-08T07:26:13.753Z,17.30
2019-02-08T07:31:27.051Z,14.47
2019-02-08T07:36:43.996Z,20.63
2019-02-08T07:41:58.456Z,23.03
2019-02-08T07:47:10.375Z,12.53
2019-02-08T07:52:25.296Z,18.63
2019-02-08T07:57:38.962Z,15.93
2019-02-08T08:03:00.906Z,21.63
2019-02-08T08:08:17.090Z,13.97
2019-02-08T08:13:30.160Z,21.80
2019-02-08T08:18:47.232Z,23.10
2019-02-08T08:23:58.787Z,22.70
2019-02-08T08:29:11.493Z,19.67
2019-02-08T08:34:27.136Z,18.97
2019-02-08T08:39:56.408Z,14.10
2019-02-08T08:45:24.408Z,15.40
2019-02-08T08:50:57.160Z,18.90
2019-02-08T08:56:21.214Z,15.83
2019-02-08T09:01:45.283Z,21.47
2019-02-08T09:07:05.174Z,21.85
2019-02-08T09:12:32.687Z,18.07
2019-02-08T09:18:05.354Z,18.47
2019-02-08T09:35:22.137Z,21.53
2019-02-08T09:40:47.567Z,15.20
2019-02-08T09:46:13.623Z,13.25
2019-02-08T09:51:36.291Z,12.33
2019-02-08T09:57:01.681Z,15.00
2019-02-08T10:02:42.130Z,20.73
2019-02-08T10:08:13.906Z,21.67
2019-02-08T10:13:41.091Z,22.73
2019-02-08T10:19:10.152Z,26.23
2019-02-08T10:24:31.217Z,17.50
2019-02-08T10:29:53.792Z,17.43
2019-02-08T10:35:16.795Z,18.10
2019-02-08T10:40:39.217Z,17.80
2019-02-08T10:46:02.268Z,21.90
2019-02-08T10:51:30.842Z,12.33
2019-02-08T10:56:53.497Z,21.57
2019-02-08T11:02:21.397Z,16.37
2019-02-08T11:07:44.128Z,16.33
2019-02-08T11:13:12.122Z,9.53
2019-02-08T11:18:36.398Z,18.43
2019-02-08T11:23:41.638Z,16.57
2019-02-08T11:28:46.869Z,14.50
2019-02-08T11:33:52.174Z,14.53
2019-02-08T11:38:57.736Z,21.67
2019-02-08T11:44:02.978Z,14.37
2019-02-08T11:49:08.493Z,18.03
2019-02-08T11:54:13.987Z,23.80
2019-02-08T11:59:19.171Z,10.43
2019-02-08T12:04:24.352Z,18.33
2019-02-08T12:09:29.707Z,19.23
2019-02-08T12:14:34.971Z,14.10
2019-02-08T12:19:40.223Z,15.00
2019-02-08T12:24:45.453Z,9.30
2019-02-08T12:29:50.814Z,12.33
2019-02-08T12:34:56.097Z,17.27
2019-02-08T12:40:01.480Z,11.33
2019-02-08T12:45:07.817Z,10.07
2019-02-08T12:50:13.690Z,19.27
2019-02-08T12:55:19.017Z,23.57
2019-02-08T13:00:24.472Z,26.70
2019-02-08T13:05:29.819Z,25.40
2019-02-08T13:10:35.212Z,23.23
2019-02-08T13:15:40.457Z,20.73
2019-02-08T13:20:45.676Z,14.43
2019-02-08T13:25:50.817Z,22.40
2019-02-08T13:30:56.073Z,22.30
2019-02-08T13:36:01.245Z,33.30
2019-02-08T13:41:06.718Z,24.53
2019-02-08T13:46:11.931Z,26.30
2019-02-08T13:51:17.128Z,33.43
2019-02-08T13:56:22.302Z,28.03
2019-02-08T14:01:28.661Z,31.63
2019-02-08T14:06:36.877Z,33.73
2019-02-08T14:11:42.128Z,32.23
2019-02-08T14:16:47.498Z,47.20
2019-02-08T14:21:52.707Z,31.27
2019-02-08T14:26:58.134Z,20.27
2019-02-08T14:32:03.547Z,18.53
2019-02-08T14:37:08.977Z,47.27
2019-02-08T14:42:14.302Z,37.87
2019-02-08T14:47:19.674Z,37.80
2019-02-08T14:52:24.956Z,35.97
2019-02-08T14:57:30.133Z,38.53
2019-02-08T15:02:35.408Z,24.90
2019-02-08T15:07:40.806Z,30.03
2019-02-08T15:12:46.313Z,20.35
2019-02-08T15:17:51.573Z,24.75
2019-02-08T15:22:56.932Z,29.73
2019-02-08T15:28:02.292Z,30.80
2019-02-08T15:33:07.917Z,23.53
2019-02-08T15:38:13.201Z,34.23
2019-02-08T15:43:20.122Z,30.60
2019-02-08T15:48:25.427Z,20.97
2019-02-08T15:53:30.623Z,28.40
2019-02-08T15:58:35.887Z,28.03
2019-02-08T16:03:41.343Z,28.20
2019-02-08T16:08:46.542Z,29.67
2019-02-08T16:13:51.837Z,26.40
2019-02-08T16:18:59.839Z,24.40
2019-02-08T16:24:05.666Z,14.27
2019-02-08T16:29:11.097Z,14.30
2019-02-08T16:34:19.145Z,10.48
2019-02-08T16:39:24.410Z,20.90
2019-02-08T16:44:31.112Z,12.80
2019-02-08T16:49:37.634Z,20.37
2019-02-08T16:54:42.862Z,11.70
2019-02-08T16:59:48.048Z,3.30
2019-02-08T17:04:53.227Z,16.02
2019-02-08T17:09:58.411Z,7.73
2019-02-08T17:15:03.643Z,19.20
2019-02-08T17:20:11.821Z,15.73
2019-02-08T17:25:17.207Z,12.50
2019-02-08T17:30:22.830Z,14.53
2019-02-08T17:35:28.501Z,19.67
2019-02-08T17:40:34.742Z,2.97
2019-02-08T17:45:40.108Z,11.67
2019-02-08T17:50:45.632Z,7.92
2019-02-08T17:55:50.908Z,13.73
2019-02-08T18:00:58.415Z,16.10
2019-02-08T18:06:03.828Z,19.03
2019-02-08T18:11:09.041Z,12.47
2019-02-08T18:16:14.278Z,11.67
2019-02-08T18:21:19.512Z,17.37
2019-02-08T18:26:24.787Z,12.63
2019-02-08T18:31:30.182Z,18.90
2019-02-08T18:36:35.466Z,18.07
2019-02-08T18:41:40.626Z,15.30
2019-02-08T18:46:45.822Z,17.73
2019-02-08T18:51:51.092Z,16.60
2019-02-08T18:56:56.322Z,11.17
2019-02-08T19:02:01.553Z,17.20
2019-02-08T19:07:06.734Z,19.03
2019-02-08T19:12:12.002Z,22.00
2019-02-08T19:17:17.261Z,13.33
2019-02-08T19:22:22.708Z,17.67
2019-02-08T19:27:28.033Z,19.67
2019-02-08T19:32:33.348Z,17.43
2019-02-08T19:37:38.659Z,8.67
2019-02-08T19:42:45.093Z,17.80
2019-02-08T19:47:50.269Z,11.70
2019-02-08T19:52:55.692Z,10.93
2019-02-08T19:58:00.975Z,13.90
2019-02-08T20:03:06.800Z,10.70
2019-02-08T20:08:13.731Z,18.97
2019-02-08T20:13:18.935Z,13.23
2019-02-08T20:18:24.343Z,13.10
2019-02-08T20:23:29.699Z,18.83
2019-02-08T20:28:41.924Z,17.67
2019-02-08T20:33:41.877Z,27.90
2019-02-08T20:38:47.267Z,18.17
2019-02-08T20:43:52.482Z,15.90
2019-02-08T20:48:57.647Z,14.70
2019-02-08T20:54:02.937Z,22.80
2019-02-08T20:59:08.103Z,17.87
2019-02-08T21:04:13.427Z,16.57
2019-02-08T21:09:18.557Z,17.90
2019-02-08T21:14:23.986Z,20.57
2019-02-08T21:19:29.328Z,24.00
2019-02-08T21:24:34.547Z,20.67
2019-02-08T21:29:39.798Z,22.07
2019-02-08T21:34:45.175Z,18.57
2019-02-08T21:39:50.422Z,20.23
2019-02-08T21:44:55.777Z,25.57
2019-02-08T21:50:00.894Z,23.63
2019-02-08T21:55:08.243Z,23.60
2019-02-08T22:00:20.407Z,29.70
2019-02-08T22:05:28.194Z,32.20
2019-02-08T22:10:33.571Z,21.87
2019-02-08T22:15:39.238Z,28.87
2019-02-08T22:20:44.529Z,26.23
2019-02-08T22:25:49.647Z,28.63
2019-02-08T22:30:54.863Z,26.15
2019-02-08T22:36:00.131Z,31.27
2019-02-08T22:41:05.537Z,27.07
2019-02-08T22:46:10.777Z,30.73
2019-02-08T22:51:16.071Z,34.93
2019-02-08T22:56:21.277Z,42.00
2019-02-08T23:01:30.714Z,47.07
2019-02-08T23:06:44.261Z,33.93
2019-02-08T23:11:43.197Z,33.90
2019-02-08T23:16:51.410Z,36.42
2019-02-08T23:21:56.696Z,43.17
2019-02-08T23:27:02.202Z,34.30
2019-02-08T23:32:07.402Z,38.63
2019-02-08T23:37:12.623Z,37.23
2019-02-08T23:42:17.784Z,39.30
2019-02-08T23:47:23.059Z,42.33
2019-02-08T23:52:28.402Z,38.80
2019-02-08T23:57:33.767Z,32.23
